Lafontaine, Kansas
Current Conditions -  °F | °C
As of 9:52 AM on Thursday 27 Nov 2014 (Local Time) from KCNU Reporting Station
Clear Clear  
Wind Chill: 30°   Ceiling: Unl
Heat Index: 30°   Visibility: 8mi
Dew Point: 22°   Wind: 0mph
Humidity: 72%   Direction: NA
Pressure: 30.55"   Gusts: NA
Location:  37.5252°N, 95.8316°W
Report Text: KCNU 271552Z AUTO 00000KT 8SM CLR M01/M06 A3055 RMK AO2 SLP354 T10111056
Loading
Personal Weather Stations






























Interactive Weather Map New forecast layout! Learn more

10-Day Weather Forecast

Advertisements
Track Severe Weather on mobile